createdAt,value
2023-11-08T00:00:59.020Z,23.00
2023-11-08T00:02:00.983Z,20.70
2023-11-08T00:03:03.012Z,16.85
2023-11-08T00:04:05.293Z,18.70
2023-11-08T00:05:08.077Z,22.73
2023-11-08T00:06:10.487Z,20.45
2023-11-08T00:07:12.477Z,16.00
2023-11-08T00:08:14.945Z,16.45
2023-11-08T00:09:16.859Z,21.30
2023-11-08T00:10:19.423Z,16.92
2023-11-08T00:11:24.688Z,17.88
2023-11-08T00:12:26.654Z,22.85
2023-11-08T00:13:28.668Z,26.33
2023-11-08T00:14:31.749Z,25.65
2023-11-08T00:15:33.649Z,23.13
2023-11-08T00:16:35.602Z,21.85
2023-11-08T00:17:38.106Z,21.38
2023-11-08T00:18:40.442Z,16.10
2023-11-08T00:19:42.616Z,21.85
2023-11-08T00:20:46.622Z,25.05
2023-11-08T00:21:48.526Z,19.95
2023-11-08T00:22:50.919Z,17.93
2023-11-08T00:23:53.060Z,29.63
2023-11-08T00:24:54.935Z,18.35
2023-11-08T00:25:56.847Z,26.67
2023-11-08T00:26:58.762Z,17.60
2023-11-08T00:28:00.737Z,30.23
2023-11-08T00:29:02.705Z,23.27
2023-11-08T00:30:05.955Z,17.90
2023-11-08T00:31:08.420Z,18.38
2023-11-08T00:32:10.383Z,27.80
2023-11-08T00:33:12.629Z,28.10
2023-11-08T00:34:16.845Z,21.15
2023-11-08T00:35:20.077Z,21.88
2023-11-08T00:36:21.955Z,24.90
2023-11-08T00:37:25.049Z,20.40
2023-11-08T00:38:26.939Z,20.83
2023-11-08T00:39:30.420Z,23.05
2023-11-08T00:40:32.234Z,25.23
2023-11-08T00:41:35.690Z,23.80
2023-11-08T00:42:37.642Z,24.05
2023-11-08T00:43:39.665Z,23.75
2023-11-08T00:44:41.893Z,21.33
2023-11-08T00:45:43.719Z,34.20
2023-11-08T00:46:45.663Z,33.55
2023-11-08T00:47:47.644Z,23.15
2023-11-08T00:48:49.700Z,28.15
2023-11-08T00:49:51.618Z,21.40
2023-11-08T00:50:53.917Z,30.33
2023-11-08T00:52:00.558Z,32.42
2023-11-08T00:53:03.823Z,26.87
2023-11-08T00:54:06.274Z,28.92
2023-11-08T00:55:08.780Z,22.13
2023-11-08T00:56:11.099Z,22.08
2023-11-08T00:57:14.201Z,19.88
2023-11-08T00:58:16.099Z,22.17
2023-11-08T00:59:19.323Z,25.08
2023-11-08T01:00:21.725Z,28.57
2023-11-08T01:01:24.049Z,34.92
2023-11-08T01:02:25.954Z,19.50
2023-11-08T01:03:28.096Z,20.50
2023-11-08T01:04:30.583Z,19.60
2023-11-08T01:05:33.446Z,27.33
2023-11-08T01:06:35.329Z,30.23
2023-11-08T01:07:37.538Z,28.05
2023-11-08T01:08:39.376Z,28.45
2023-11-08T01:09:41.368Z,27.38
2023-11-08T01:10:44.696Z,38.20
2023-11-08T01:11:46.561Z,28.67
2023-11-08T01:12:51.530Z,24.23
2023-11-08T01:13:53.413Z,33.00
2023-11-08T01:14:55.203Z,35.50
2023-11-08T01:15:57.066Z,27.60
2023-11-08T01:16:59.382Z,31.08
2023-11-08T01:18:01.948Z,28.63
2023-11-08T01:19:04.251Z,27.38
2023-11-08T01:20:06.912Z,29.75
2023-11-08T01:21:08.718Z,29.90
2023-11-08T01:22:10.734Z,29.25
2023-11-08T01:23:13.138Z,20.97
2023-11-08T01:24:15.364Z,27.92
2023-11-08T01:25:17.632Z,31.15
2023-11-08T01:26:19.817Z,30.63
2023-11-08T01:27:21.821Z,24.77
2023-11-08T01:28:24.438Z,24.95
2023-11-08T01:29:26.927Z,27.95
2023-11-08T01:30:28.944Z,28.73
2023-11-08T01:31:32.043Z,22.15
2023-11-08T01:32:33.903Z,22.77
2023-11-08T01:33:35.991Z,23.88
2023-11-08T01:34:38.127Z,28.80
2023-11-08T01:35:44.022Z,22.80
2023-11-08T01:36:46.322Z,18.90
2023-11-08T01:37:48.253Z,18.92
2023-11-08T01:38:50.094Z,24.15
2023-11-08T01:39:51.929Z,29.02
2023-11-08T01:40:53.958Z,20.48
2023-11-08T01:41:56.354Z,23.33
2023-11-08T01:42:58.648Z,25.45
2023-11-08T01:44:04.622Z,25.83
2023-11-08T01:45:07.238Z,25.58
2023-11-08T01:46:29.637Z,23.65
2023-11-08T01:47:36.690Z,30.15
2023-11-08T01:48:41.381Z,26.65
2023-11-08T01:49:45.421Z,26.00
2023-11-08T01:50:47.765Z,33.20
2023-11-08T01:51:50.932Z,26.70
2023-11-08T01:52:52.972Z,26.42
2023-11-08T01:53:56.001Z,23.43
2023-11-08T01:54:58.398Z,26.55
2023-11-08T01:56:00.358Z,29.27
2023-11-08T01:57:03.695Z,30.33
2023-11-08T01:58:06.059Z,32.05
2023-11-08T01:59:10.317Z,29.00
2023-11-08T02:00:15.767Z,32.03
2023-11-08T02:01:19.749Z,28.40
2023-11-08T02:02:21.847Z,27.48
2023-11-08T02:03:24.821Z,31.77
2023-11-08T02:04:30.807Z,25.52
2023-11-08T02:05:34.896Z,29.40
2023-11-08T02:06:37.169Z,23.13
2023-11-08T02:07:39.349Z,28.42
2023-11-08T02:08:42.152Z,28.75
2023-11-08T02:09:44.332Z,39.95
2023-11-08T02:10:46.251Z,31.70
2023-11-08T02:11:48.233Z,40.97
2023-11-08T02:12:51.301Z,26.75
2023-11-08T02:13:53.204Z,27.73
2023-11-08T02:15:07.139Z,25.45
2023-11-08T02:16:09.505Z,28.17
2023-11-08T02:17:11.326Z,24.50
2023-11-08T02:18:13.161Z,23.87
2023-11-08T02:19:15.115Z,27.65
2023-11-08T02:20:18.614Z,37.40
2023-11-08T02:21:20.548Z,28.58
2023-11-08T02:22:23.078Z,23.00
2023-11-08T02:23:25.012Z,30.73
2023-11-08T02:24:27.343Z,24.83
2023-11-08T02:25:31.451Z,22.90
2023-11-08T02:26:33.250Z,22.60
2023-11-08T02:27:35.172Z,23.83
2023-11-08T02:28:38.291Z,28.30
2023-11-08T02:29:40.651Z,23.83
2023-11-08T02:30:42.513Z,28.35
2023-11-08T02:31:52.344Z,30.17
2023-11-08T02:32:54.640Z,24.70
2023-11-08T02:33:56.646Z,27.70
2023-11-08T02:34:58.489Z,23.10
2023-11-08T02:36:02.334Z,27.15
2023-11-08T02:37:04.431Z,26.42
2023-11-08T02:38:07.454Z,21.17
2023-11-08T02:39:09.813Z,28.38
2023-11-08T02:40:12.535Z,29.60
2023-11-08T02:41:14.365Z,24.75
2023-11-08T02:42:16.313Z,28.48
2023-11-08T02:43:18.197Z,27.47
2023-11-08T02:44:21.759Z,25.92
2023-11-08T02:45:23.689Z,26.80
2023-11-08T02:46:25.561Z,19.45
2023-11-08T02:47:27.425Z,24.73
2023-11-08T02:48:29.439Z,24.67
2023-11-08T02:49:32.719Z,31.90
2023-11-08T02:50:39.314Z,22.80
2023-11-08T02:51:41.203Z,20.33
2023-11-08T02:52:43.409Z,33.37
2023-11-08T02:53:45.185Z,25.95
2023-11-08T02:54:51.577Z,29.77
2023-11-08T02:55:53.442Z,24.63
2023-11-08T02:56:55.428Z,25.05
2023-11-08T02:57:57.319Z,21.38
2023-11-08T02:58:59.270Z,24.25
2023-11-08T03:00:04.775Z,20.60
2023-11-08T03:01:06.653Z,21.83
2023-11-08T03:02:09.073Z,28.25
2023-11-08T03:03:13.824Z,24.07
2023-11-08T03:04:16.567Z,24.65
2023-11-08T03:05:23.059Z,23.60
2023-11-08T03:06:25.442Z,25.73
2023-11-08T03:07:28.227Z,22.40
2023-11-08T03:08:30.214Z,19.80
2023-11-08T03:09:34.713Z,29.65
2023-11-08T03:10:36.893Z,28.15
2023-11-08T03:11:39.502Z,24.10
2023-11-08T03:12:45.995Z,30.45
2023-11-08T03:13:47.839Z,30.00
2023-11-08T03:14:50.104Z,24.10
2023-11-08T03:15:52.034Z,23.45
2023-11-08T03:16:55.276Z,28.00
2023-11-08T03:17:57.432Z,23.87
2023-11-08T03:18:59.440Z,24.45
2023-11-08T03:20:01.341Z,25.63
2023-11-08T03:21:03.704Z,21.85
2023-11-08T03:22:06.173Z,22.20
2023-11-08T03:23:08.224Z,24.52
2023-11-08T03:24:10.197Z,34.03
2023-11-08T03:25:13.081Z,20.75
2023-11-08T03:26:16.673Z,27.13
2023-11-08T03:27:19.518Z,18.92
2023-11-08T03:28:22.022Z,23.27
2023-11-08T03:29:23.962Z,25.83
2023-11-08T03:30:27.025Z,19.35
2023-11-08T03:31:31.295Z,26.45
2023-11-08T03:32:34.689Z,33.63
2023-11-08T03:33:36.902Z,21.25
2023-11-08T03:34:39.357Z,23.87
2023-11-08T03:35:41.238Z,26.27
2023-11-08T03:36:43.750Z,26.73
2023-11-08T03:37:46.047Z,21.27
2023-11-08T03:38:47.990Z,24.30
2023-11-08T03:39:50.160Z,29.25
2023-11-08T03:40:52.262Z,24.38
2023-11-08T03:41:54.495Z,18.88
2023-11-08T03:42:57.452Z,20.13
2023-11-08T03:43:59.383Z,23.00
2023-11-08T03:45:02.936Z,28.10
2023-11-08T03:46:04.951Z,21.05
2023-11-08T03:47:08.231Z,23.55
2023-11-08T03:48:10.280Z,20.33
2023-11-08T03:49:12.376Z,25.85
2023-11-08T03:50:14.298Z,26.25
2023-11-08T03:51:16.225Z,29.33
2023-11-08T03:52:18.572Z,22.33
2023-11-08T03:53:20.567Z,21.75
2023-11-08T03:54:22.427Z,21.83
2023-11-08T03:55:24.256Z,24.08
2023-11-08T03:56:28.751Z,18.88
2023-11-08T03:57:30.648Z,27.08
2023-11-08T03:58:32.432Z,20.15
2023-11-08T03:59:35.700Z,28.05
2023-11-08T04:00:38.054Z,19.38
2023-11-08T04:01:39.957Z,24.15
2023-11-08T04:02:41.966Z,32.20
2023-11-08T04:03:43.880Z,26.17
2023-11-08T04:04:46.622Z,25.13
2023-11-08T04:05:49.080Z,25.45
2023-11-08T04:06:51.185Z,20.20
2023-11-08T04:07:53.322Z,21.02
2023-11-08T04:08:55.287Z,18.45
2023-11-08T04:09:57.243Z,22.73
2023-11-08T04:10:59.704Z,17.35
2023-11-08T04:12:01.596Z,21.87
2023-11-08T04:13:03.717Z,20.63
2023-11-08T04:14:05.494Z,27.15
2023-11-08T04:15:09.213Z,25.92
2023-11-08T04:16:11.080Z,21.38
2023-11-08T04:17:14.960Z,29.83
2023-11-08T04:18:16.960Z,24.45
2023-11-08T04:19:19.046Z,20.57
2023-11-08T04:20:21.076Z,21.35
2023-11-08T04:21:23.176Z,20.08
2023-11-08T04:22:25.126Z,16.05
2023-11-08T04:23:27.290Z,21.95
2023-11-08T04:24:29.259Z,21.77
2023-11-08T04:25:31.850Z,21.08
2023-11-08T04:26:34.155Z,20.10
2023-11-08T04:27:36.035Z,21.75
2023-11-08T04:28:44.198Z,21.00
2023-11-08T04:29:46.266Z,21.33
2023-11-08T04:30:48.348Z,25.13
2023-11-08T04:31:51.174Z,24.77
2023-11-08T04:32:53.556Z,18.85
2023-11-08T04:33:55.497Z,20.83
2023-11-08T04:34:57.408Z,25.77
2023-11-08T04:36:00.600Z,26.48
2023-11-08T04:37:06.421Z,18.02
2023-11-08T04:38:08.479Z,20.75
2023-11-08T04:39:11.453Z,20.35
2023-11-08T04:40:13.602Z,20.47
2023-11-08T04:41:16.393Z,16.60
2023-11-08T04:42:18.518Z,23.15
2023-11-08T04:43:20.883Z,17.25
2023-11-08T04:44:23.121Z,18.60
2023-11-08T04:45:25.097Z,21.65
2023-11-08T04:46:26.991Z,21.63
2023-11-08T04:47:29.103Z,21.13
2023-11-08T04:48:31.317Z,20.30
2023-11-08T04:49:34.916Z,22.65
2023-11-08T04:50:37.867Z,18.83
2023-11-08T04:51:39.884Z,17.92
2023-11-08T04:52:41.853Z,20.30
2023-11-08T04:53:43.652Z,16.08
2023-11-08T04:54:54.632Z,18.48
2023-11-08T04:55:57.091Z,20.45
2023-11-08T04:56:58.925Z,17.85
2023-11-08T04:58:00.783Z,26.20
2023-11-08T04:59:02.676Z,19.35
2023-11-08T05:00:06.588Z,17.42
2023-11-08T05:01:08.548Z,19.92
2023-11-08T05:02:10.475Z,15.30
2023-11-08T05:03:12.332Z,21.38
2023-11-08T05:04:14.507Z,19.75
2023-11-08T05:05:18.052Z,20.40
2023-11-08T05:06:20.112Z,16.67
2023-11-08T05:07:22.152Z,21.90
2023-11-08T05:08:25.024Z,25.42
2023-11-08T05:09:27.684Z,19.40
2023-11-08T05:10:29.610Z,19.87
2023-11-08T05:11:31.528Z,20.63
2023-11-08T05:12:34.486Z,19.30
2023-11-08T05:13:36.472Z,18.17
2023-11-08T05:14:39.104Z,20.20
2023-11-08T05:15:40.998Z,19.15
2023-11-08T05:16:42.847Z,19.52
2023-11-08T05:17:45.828Z,14.63
2023-11-08T05:18:47.764Z,17.40
2023-11-08T05:19:49.725Z,20.48
2023-11-08T05:20:51.781Z,24.52
2023-11-08T05:21:53.650Z,17.30
2023-11-08T05:22:56.366Z,17.30
2023-11-08T05:23:58.354Z,20.38
2023-11-08T05:25:01.796Z,19.83
2023-11-08T05:26:03.720Z,20.13
2023-11-08T05:27:08.721Z,23.63
2023-11-08T05:28:10.658Z,18.77
2023-11-08T05:29:12.727Z,23.00
2023-11-08T05:30:17.243Z,19.52
2023-11-08T05:31:20.694Z,22.90
2023-11-08T05:32:24.274Z,16.48
2023-11-08T05:33:26.113Z,16.52
2023-11-08T05:34:28.065Z,17.38
2023-11-08T05:35:30.092Z,14.68
2023-11-08T05:36:32.303Z,15.95
2023-11-08T05:37:34.170Z,21.17
2023-11-08T05:38:36.072Z,19.10
2023-11-08T05:39:42.124Z,21.05
2023-11-08T05:40:45.564Z,20.48
2023-11-08T05:41:47.403Z,18.65
2023-11-08T05:42:49.364Z,24.83
2023-11-08T05:43:53.549Z,19.20
2023-11-08T05:44:58.274Z,17.05
2023-11-08T05:46:00.297Z,20.80
2023-11-08T05:47:02.534Z,18.52
2023-11-08T05:48:04.791Z,23.65
2023-11-08T05:49:06.697Z,16.92
2023-11-08T05:50:11.258Z,22.40
2023-11-08T05:51:13.487Z,24.23
2023-11-08T05:52:15.446Z,25.70
2023-11-08T05:53:18.483Z,28.75
2023-11-08T05:54:20.471Z,21.52
2023-11-08T05:55:22.751Z,16.58
2023-11-08T05:56:24.632Z,17.92
2023-11-08T05:57:26.520Z,16.33
2023-11-08T05:58:28.407Z,27.83
2023-11-08T05:59:30.267Z,16.48
2023-11-08T06:00:32.254Z,17.65
2023-11-08T06:01:34.900Z,18.55
2023-11-08T06:02:37.075Z,16.95
2023-11-08T06:03:39.269Z,21.33
2023-11-08T06:04:41.839Z,16.05
2023-11-08T06:05:44.132Z,17.35
2023-11-08T06:06:46.274Z,18.48
2023-11-08T06:07:48.585Z,23.52
2023-11-08T06:08:50.481Z,14.70
2023-11-08T06:09:52.421Z,19.02
2023-11-08T06:10:54.226Z,15.65
2023-11-08T06:11:56.172Z,21.50
2023-11-08T06:12:58.267Z,17.98
2023-11-08T06:14:00.206Z,17.33
2023-11-08T06:15:02.128Z,16.88
2023-11-08T06:16:04.334Z,15.00
2023-11-08T06:17:06.296Z,20.55
2023-11-08T06:18:10.322Z,16.77
2023-11-08T06:19:12.716Z,17.70
2023-11-08T06:20:15.061Z,14.55
2023-11-08T06:21:16.934Z,20.42
2023-11-08T06:22:18.811Z,17.27
2023-11-08T06:23:20.747Z,15.85
2023-11-08T06:24:22.756Z,19.52
2023-11-08T06:25:24.710Z,16.80
2023-11-08T06:26:26.930Z,16.30
2023-11-08T06:27:28.803Z,17.85
2023-11-08T06:28:32.420Z,14.10
2023-11-08T06:29:38.434Z,15.13
2023-11-08T06:30:40.565Z,16.63
2023-11-08T06:31:43.007Z,13.52
2023-11-08T06:32:45.076Z,16.73
2023-11-08T06:33:47.094Z,12.70
2023-11-08T06:34:49.335Z,16.23
2023-11-08T06:35:53.937Z,17.05
2023-11-08T06:36:55.891Z,23.42
2023-11-08T06:37:58.920Z,12.60
2023-11-08T06:39:00.946Z,17.05
2023-11-08T06:40:03.376Z,12.02
2023-11-08T06:41:05.452Z,12.70
2023-11-08T06:42:08.503Z,15.13
2023-11-08T06:43:12.146Z,13.70
2023-11-08T06:44:14.942Z,19.73
2023-11-08T06:45:16.954Z,13.30
2023-11-08T06:46:21.213Z,14.52
2023-11-08T06:47:25.241Z,13.20
2023-11-08T06:48:27.337Z,11.80
2023-11-08T06:49:30.100Z,16.03
2023-11-08T06:50:32.051Z,12.82
2023-11-08T06:51:34.082Z,13.73
2023-11-08T06:52:35.961Z,15.90
2023-11-08T06:53:37.852Z,12.68
2023-11-08T06:54:42.189Z,13.55
2023-11-08T06:55:46.059Z,14.57
2023-11-08T06:56:47.870Z,11.48
2023-11-08T06:57:49.742Z,13.95
2023-11-08T06:58:51.718Z,11.57
2023-11-08T06:59:53.585Z,15.05
2023-11-08T07:01:04.222Z,13.85
2023-11-08T07:02:11.165Z,12.63
2023-11-08T07:03:13.042Z,12.27
2023-11-08T07:04:15.374Z,13.32
2023-11-08T07:05:27.202Z,13.40
2023-11-08T07:06:33.041Z,8.00
2023-11-08T07:07:35.041Z,12.30
2023-11-08T07:08:37.099Z,13.43
2023-11-08T07:09:41.540Z,12.05
2023-11-08T07:10:43.368Z,20.23
2023-11-08T07:11:48.928Z,9.23
2023-11-08T07:12:50.965Z,15.32
2023-11-08T07:13:55.517Z,11.25
2023-11-08T07:14:57.486Z,15.20
2023-11-08T07:16:03.634Z,17.23
2023-11-08T07:17:06.592Z,9.35
2023-11-08T07:18:11.033Z,11.30
2023-11-08T07:19:16.029Z,11.52
2023-11-08T07:20:18.007Z,18.50
2023-11-08T07:21:21.423Z,8.73
2023-11-08T07:22:23.595Z,13.85
2023-11-08T07:23:26.245Z,11.60
2023-11-08T07:24:28.168Z,15.60
2023-11-08T07:25:30.061Z,14.27
2023-11-08T07:26:33.182Z,19.92
2023-11-08T07:27:39.511Z,14.77
2023-11-08T07:28:43.085Z,12.23
2023-11-08T07:29:45.848Z,8.90
2023-11-08T07:30:47.781Z,9.65
2023-11-08T07:31:53.501Z,13.15
2023-11-08T07:32:56.045Z,8.73
2023-11-08T07:33:58.340Z,13.07
2023-11-08T07:35:00.270Z,8.95
2023-11-08T07:36:02.155Z,15.88
2023-11-08T07:37:04.373Z,10.27
2023-11-08T07:38:06.400Z,14.40
2023-11-08T07:39:14.727Z,13.93
2023-11-08T07:40:28.788Z,12.20
2023-11-08T07:41:32.297Z,10.35
2023-11-08T07:42:34.778Z,17.60
2023-11-08T07:43:36.775Z,12.65
2023-11-08T07:44:39.041Z,12.18
2023-11-08T07:45:41.123Z,10.23
2023-11-08T07:46:43.134Z,19.23
2023-11-08T07:47:47.050Z,17.70
2023-11-08T07:48:49.047Z,10.75
2023-11-08T07:49:51.236Z,14.57
2023-11-08T07:50:54.397Z,15.90
2023-11-08T07:51:56.385Z,14.35
2023-11-08T07:52:58.918Z,11.25
2023-11-08T07:54:01.878Z,12.83
2023-11-08T07:55:06.315Z,13.55
2023-11-08T07:56:10.108Z,14.48
2023-11-08T07:57:12.045Z,9.35
2023-11-08T07:58:14.096Z,11.90
2023-11-08T07:59:16.073Z,12.07
2023-11-08T08:00:23.776Z,10.50
2023-11-08T08:01:27.190Z,15.32
2023-11-08T08:02:30.126Z,12.38
2023-11-08T08:03:32.075Z,10.93
2023-11-08T08:04:34.456Z,12.38
2023-11-08T08:05:36.439Z,10.55
2023-11-08T08:06:38.292Z,8.77
2023-11-08T08:07:40.338Z,9.38
2023-11-08T08:08:43.695Z,15.55
2023-11-08T08:09:46.239Z,10.45
2023-11-08T08:10:48.238Z,10.23
2023-11-08T08:11:50.223Z,8.32
2023-11-08T08:12:52.098Z,15.98
2023-11-08T08:13:54.137Z,11.47
2023-11-08T08:14:57.535Z,9.90
2023-11-08T08:15:59.678Z,11.98
2023-11-08T08:17:04.380Z,13.18
2023-11-08T08:18:06.367Z,11.13
2023-11-08T08:19:10.022Z,8.82
2023-11-08T08:20:12.787Z,12.33
2023-11-08T08:21:15.422Z,12.48
2023-11-08T08:22:17.428Z,11.00
2023-11-08T08:23:19.253Z,13.82
2023-11-08T08:24:22.433Z,8.25
2023-11-08T08:25:25.139Z,11.52
2023-11-08T08:26:29.247Z,11.13
2023-11-08T08:27:35.490Z,13.23
2023-11-08T08:28:37.414Z,13.32
2023-11-08T08:29:40.756Z,12.52
2023-11-08T08:30:42.700Z,18.55
2023-11-08T08:31:44.645Z,11.93
2023-11-08T08:32:46.775Z,9.60
2023-11-08T08:33:48.709Z,12.03
2023-11-08T08:34:50.800Z,13.10
2023-11-08T08:35:52.781Z,9.32
2023-11-08T08:37:08.821Z,10.25
2023-11-08T08:38:11.284Z,16.85
2023-11-08T08:39:17.198Z,12.93
2023-11-08T08:40:19.171Z,10.80
2023-11-08T08:41:21.159Z,9.25
2023-11-08T08:42:23.116Z,15.93
2023-11-08T08:43:25.588Z,12.50
2023-11-08T08:44:27.450Z,13.45
2023-11-08T08:45:30.480Z,11.32
2023-11-08T08:46:35.660Z,11.95
2023-11-08T08:47:45.012Z,10.43
2023-11-08T08:48:47.894Z,9.30
2023-11-08T08:49:56.887Z,11.00
2023-11-08T08:51:01.098Z,8.95
2023-11-08T08:52:03.201Z,10.75
2023-11-08T08:53:06.181Z,10.23
2023-11-08T08:54:11.289Z,10.32
2023-11-08T08:55:18.312Z,17.53
2023-11-08T08:56:36.087Z,15.05
2023-11-08T08:57:46.659Z,9.13
2023-11-08T08:58:58.728Z,10.25
2023-11-08T09:00:08.988Z,11.50
2023-11-08T09:01:15.469Z,12.73
2023-11-08T09:02:17.315Z,8.52
2023-11-08T09:03:23.267Z,9.30
2023-11-08T09:04:27.953Z,9.80
2023-11-08T09:05:34.506Z,8.60
2023-11-08T09:06:36.530Z,10.77
2023-11-08T09:07:46.291Z,7.70
2023-11-08T09:08:52.969Z,10.60
2023-11-08T09:09:55.183Z,15.32
2023-11-08T09:10:57.428Z,14.27
2023-11-08T09:12:01.848Z,12.85
2023-11-08T09:13:04.566Z,11.43
2023-11-08T09:14:06.908Z,8.40
2023-11-08T09:15:09.797Z,9.23
2023-11-08T09:16:12.221Z,9.80
2023-11-08T09:17:20.979Z,14.77
2023-11-08T09:18:27.940Z,15.30
2023-11-08T09:19:30.166Z,10.45
2023-11-08T09:20:38.355Z,10.18
2023-11-08T09:21:41.596Z,7.10
2023-11-08T09:22:48.427Z,11.07
2023-11-08T09:24:10.056Z,8.53
2023-11-08T09:25:16.703Z,10.57
2023-11-08T09:26:18.572Z,9.95
2023-11-08T09:27:20.737Z,11.48
2023-11-08T09:28:23.010Z,13.27
2023-11-08T09:29:25.763Z,13.63
2023-11-08T09:30:37.223Z,10.85
2023-11-08T09:31:42.123Z,11.07
2023-11-08T09:32:48.973Z,8.60
2023-11-08T09:33:51.046Z,16.45
2023-11-08T09:34:54.568Z,12.17
2023-11-08T09:35:57.620Z,13.25
2023-11-08T09:37:01.568Z,10.02
2023-11-08T09:38:03.482Z,11.55
2023-11-08T09:39:09.366Z,11.25
2023-11-08T09:40:12.895Z,12.00
2023-11-08T09:41:17.234Z,9.40
2023-11-08T09:42:28.189Z,11.52
2023-11-08T09:43:35.982Z,7.72
2023-11-08T09:44:40.305Z,12.30
2023-11-08T09:45:44.386Z,8.43
2023-11-08T09:46:47.225Z,8.90
2023-11-08T09:47:49.577Z,15.02
2023-11-08T09:48:55.754Z,8.73
2023-11-08T09:49:59.616Z,10.65
2023-11-08T09:51:09.401Z,9.80
2023-11-08T09:52:16.217Z,17.88
2023-11-08T09:53:18.260Z,10.02
2023-11-08T09:54:22.551Z,9.15
2023-11-08T09:55:27.353Z,17.27
2023-11-08T09:56:29.331Z,9.00
2023-11-08T09:57:39.006Z,12.32
2023-11-08T09:58:45.686Z,14.30
2023-11-08T09:59:53.825Z,14.43
2023-11-08T10:01:00.478Z,16.25
2023-11-08T10:02:07.854Z,13.20
2023-11-08T10:03:10.718Z,10.43
2023-11-08T10:04:24.192Z,8.20
2023-11-08T10:05:37.962Z,13.23
2023-11-08T10:06:40.277Z,12.60
2023-11-08T10:07:44.696Z,11.47
2023-11-08T10:08:47.983Z,8.75
2023-11-08T10:09:52.242Z,14.68
2023-11-08T10:10:57.102Z,12.98
2023-11-08T10:12:04.140Z,13.55
2023-11-08T10:13:07.702Z,13.45
2023-11-08T10:14:12.417Z,15.07
2023-11-08T10:15:29.338Z,9.80
2023-11-08T10:16:54.979Z,11.20
2023-11-08T10:19:32.282Z,11.55
2023-11-08T10:21:27.574Z,12.18
2023-11-08T10:22:33.034Z,15.93
2023-11-08T10:23:43.632Z,11.98
2023-11-08T10:25:04.250Z,12.98
2023-11-08T10:26:20.874Z,10.43
2023-11-08T10:27:29.219Z,14.38
2023-11-08T10:28:33.413Z,15.15
2023-11-08T10:29:36.572Z,11.00
2023-11-08T10:30:49.421Z,16.40
2023-11-08T10:31:51.791Z,11.27
2023-11-08T10:33:12.607Z,16.58
2023-11-08T10:34:21.141Z,11.77
2023-11-08T10:35:24.681Z,12.18
2023-11-08T10:36:34.723Z,11.27
2023-11-08T10:37:37.844Z,10.63
2023-11-08T10:38:44.732Z,9.20
2023-11-08T10:39:46.832Z,11.00
2023-11-08T10:41:02.081Z,14.20
2023-11-08T10:42:08.849Z,9.95
2023-11-08T10:43:21.784Z,13.30
2023-11-08T10:44:26.101Z,10.30
2023-11-08T10:45:28.222Z,13.32
2023-11-08T10:46:30.027Z,11.95
2023-11-08T10:47:32.132Z,11.30
2023-11-08T10:48:34.362Z,11.85
2023-11-08T10:49:45.991Z,13.15
2023-11-08T10:50:50.592Z,12.75
2023-11-08T10:51:54.866Z,11.77
2023-11-08T10:52:58.426Z,11.45
2023-11-08T10:54:01.109Z,12.70
2023-11-08T10:55:05.912Z,13.75
2023-11-08T10:56:10.012Z,9.95
2023-11-08T10:57:14.433Z,15.48
2023-11-08T10:58:18.390Z,18.60
2023-11-08T10:59:22.869Z,16.73
2023-11-08T11:00:27.483Z,12.27
2023-11-08T11:01:32.183Z,10.82
2023-11-08T11:02:41.968Z,13.70
2023-11-08T11:03:44.508Z,12.52
2023-11-08T11:04:47.476Z,8.47
2023-11-08T11:05:52.923Z,11.63
2023-11-08T11:06:56.074Z,12.48
2023-11-08T11:08:00.784Z,10.52
2023-11-08T11:09:11.931Z,16.23
2023-11-08T11:10:14.544Z,14.27
2023-11-08T11:11:20.465Z,7.47
2023-11-08T11:12:53.738Z,11.77
2023-11-08T11:14:08.588Z,14.13
2023-11-08T11:15:17.639Z,14.23
2023-11-08T11:16:34.596Z,18.80
2023-11-08T11:17:45.259Z,14.35
2023-11-08T11:18:52.381Z,12.65
2023-11-08T11:19:57.649Z,18.88
2023-11-08T11:21:16.401Z,14.23
2023-11-08T11:22:21.340Z,10.88
2023-11-08T11:23:35.842Z,13.80
2023-11-08T11:24:42.392Z,11.75
2023-11-08T11:25:49.470Z,8.88
2023-11-08T11:26:52.582Z,15.63
2023-11-08T11:27:59.159Z,10.73
2023-11-08T11:29:01.004Z,10.63
2023-11-08T11:30:15.113Z,12.88
2023-11-08T11:31:34.701Z,13.82
2023-11-08T11:32:38.089Z,14.63
2023-11-08T11:33:40.028Z,15.63
2023-11-08T11:34:44.052Z,11.98
2023-11-08T11:35:51.596Z,12.10
2023-11-08T11:37:11.308Z,11.82
2023-11-08T11:38:26.241Z,11.82
2023-11-08T11:39:32.857Z,18.97
2023-11-08T11:40:46.379Z,12.80
2023-11-08T11:41:49.756Z,12.25
2023-11-08T11:42:51.948Z,13.73
2023-11-08T11:43:54.094Z,12.45
2023-11-08T11:45:03.304Z,9.88
2023-11-08T11:46:06.745Z,11.15
2023-11-08T11:47:19.058Z,17.15
2023-11-08T11:48:22.840Z,8.80
2023-11-08T11:49:25.304Z,14.32
2023-11-08T11:50:28.541Z,8.67
2023-11-08T11:51:30.623Z,11.25
2023-11-08T11:52:33.942Z,20.77
2023-11-08T11:53:37.366Z,11.35
2023-11-08T11:54:45.216Z,13.48
2023-11-08T11:55:47.165Z,10.32
2023-11-08T11:56:49.332Z,9.95
2023-11-08T11:57:51.260Z,9.77
2023-11-08T11:58:53.056Z,11.55
2023-11-08T12:00:00.153Z,13.40
2023-11-08T12:01:06.604Z,12.23
2023-11-08T12:02:11.687Z,13.95
2023-11-08T12:03:13.815Z,14.63
2023-11-08T12:04:23.533Z,13.90
2023-11-08T12:05:26.888Z,11.98
2023-11-08T12:06:30.169Z,10.65
2023-11-08T12:07:32.942Z,15.00
2023-11-08T12:08:36.723Z,12.45
2023-11-08T12:09:41.007Z,12.52
2023-11-08T12:10:43.053Z,19.00
2023-11-08T12:11:48.949Z,8.20
2023-11-08T12:12:53.518Z,12.18
2023-11-08T12:13:56.510Z,12.80
2023-11-08T12:14:58.922Z,16.08
2023-11-08T12:16:01.978Z,9.65
2023-11-08T12:17:05.623Z,6.93
2023-11-08T12:18:12.716Z,13.73
2023-11-08T12:19:16.829Z,8.55
2023-11-08T12:20:23.031Z,13.90
2023-11-08T12:21:27.327Z,11.50
2023-11-08T12:22:30.723Z,10.30
2023-11-08T12:23:34.031Z,16.85
2023-11-08T12:24:38.264Z,13.15
2023-11-08T12:25:40.088Z,10.68
2023-11-08T12:26:41.963Z,11.93
2023-11-08T12:27:45.243Z,12.18
2023-11-08T12:28:47.966Z,10.05
2023-11-08T12:29:51.476Z,15.57
2023-11-08T12:30:53.334Z,12.35
2023-11-08T12:31:57.982Z,11.48
2023-11-08T12:33:00.278Z,13.07
2023-11-08T12:34:06.313Z,14.05
2023-11-08T12:35:10.303Z,10.82
2023-11-08T12:36:12.777Z,11.73
2023-11-08T12:37:16.246Z,14.43
2023-11-08T12:38:18.784Z,13.30
2023-11-08T12:39:24.515Z,12.43
2023-11-08T12:40:28.776Z,16.13
2023-11-08T12:41:42.314Z,9.20
2023-11-08T12:42:44.141Z,11.73
2023-11-08T12:44:06.218Z,12.10
2023-11-08T12:45:08.860Z,16.33
2023-11-08T12:46:40.670Z,14.05
2023-11-08T12:47:44.955Z,13.20
2023-11-08T12:48:57.366Z,11.57
2023-11-08T12:50:11.538Z,9.77
2023-11-08T12:51:13.504Z,10.70
2023-11-08T12:52:21.907Z,8.23
2023-11-08T12:53:24.857Z,8.57
2023-11-08T12:54:27.211Z,12.77
2023-11-08T12:55:39.428Z,8.83
2023-11-08T12:56:43.125Z,13.95
2023-11-08T12:57:47.843Z,13.40
2023-11-08T12:58:51.213Z,8.95
2023-11-08T12:59:53.023Z,16.73
2023-11-08T13:00:56.132Z,11.20
2023-11-08T13:02:12.860Z,11.98
2023-11-08T13:03:21.607Z,12.30
2023-11-08T13:04:25.145Z,13.70
2023-11-08T13:05:29.033Z,12.45
2023-11-08T13:06:32.279Z,9.83
2023-11-08T13:07:36.581Z,15.15
2023-11-08T13:08:41.528Z,15.57
2023-11-08T13:09:43.621Z,13.68
2023-11-08T13:10:46.114Z,8.35
2023-11-08T13:11:47.884Z,12.18
2023-11-08T13:12:50.322Z,14.88
2023-11-08T13:13:55.129Z,12.23
2023-11-08T13:14:57.437Z,12.10
2023-11-08T13:16:01.734Z,11.50
2023-11-08T13:17:05.097Z,9.40
2023-11-08T13:18:08.847Z,8.90
2023-11-08T13:19:11.192Z,17.55
2023-11-08T13:20:14.726Z,7.82
2023-11-08T13:21:17.402Z,14.10
2023-11-08T13:22:19.439Z,11.75
2023-11-08T13:24:00.230Z,10.77
2023-11-08T13:24:47.221Z,11.75
2023-11-08T13:25:49.674Z,13.65
2023-11-08T13:26:51.525Z,8.00
2023-11-08T13:27:54.223Z,14.03
2023-11-08T13:29:00.482Z,8.80
2023-11-08T13:30:05.796Z,8.68
2023-11-08T13:31:07.925Z,9.70
2023-11-08T13:32:11.885Z,12.27
2023-11-08T13:33:14.166Z,13.93
2023-11-08T13:34:17.178Z,8.80
2023-11-08T13:35:19.633Z,10.23
2023-11-08T13:36:27.531Z,10.65
2023-11-08T13:37:29.940Z,11.57
2023-11-08T13:38:33.511Z,15.17
2023-11-08T13:39:37.747Z,10.45
2023-11-08T13:40:39.567Z,14.48
2023-11-08T13:41:41.540Z,12.05
2023-11-08T13:42:45.652Z,12.85
2023-11-08T13:43:47.581Z,8.80
2023-11-08T13:44:49.502Z,11.07
2023-11-08T13:45:51.437Z,10.88
2023-11-08T13:46:53.288Z,8.32
2023-11-08T13:47:55.270Z,12.10
2023-11-08T13:48:57.501Z,13.43